sensor_id;sensor_type;location;lat;lon;timestamp;pressure;altitude;pressure_sealevel;temperature;humidity
74169;BME280;62523;53.336;83.690;2023-03-23T00:04:29;99946.28;;;-12.48;100.00
74169;BME280;62523;53.336;83.690;2023-03-23T00:09:31;99941.06;;;-12.14;100.00
74169;BME280;62523;53.336;83.690;2023-03-23T00:14:35;99920.00;;;-11.71;100.00
74169;BME280;62523;53.336;83.690;2023-03-23T00:19:43;99931.50;;;-11.79;100.00
74169;BME280;62523;53.336;83.690;2023-03-23T00:24:48;99931.25;;;-11.85;100.00
74169;BME280;62523;53.336;83.690;2023-03-23T00:29:52;99928.94;;;-11.81;100.00
74169;BME280;62523;53.336;83.690;2023-03-23T00:34:57;99927.19;;;-11.82;100.00
74169;BME280;62523;53.336;83.690;2023-03-23T00:40:02;99926.44;;;-11.79;100.00
74169;BME280;62523;53.336;83.690;2023-03-23T00:45:08;99916.06;;;-11.84;100.00
74169;BME280;62523;53.336;83.690;2023-03-23T00:50:11;99918.88;;;-11.78;100.00
74169;BME280;62523;53.336;83.690;2023-03-23T00:55:13;99913.84;;;-11.97;100.00
74169;BME280;62523;53.336;83.690;2023-03-23T01:00:15;99921.75;;;-11.70;100.00
74169;BME280;62523;53.336;83.690;2023-03-23T01:05:17;99907.06;;;-11.56;100.00
74169;BME280;62523;53.336;83.690;2023-03-23T01:10:19;99916.69;;;-11.49;100.00
74169;BME280;62523;53.336;83.690;2023-03-23T01:15:21;99916.88;;;-11.44;100.00
74169;BME280;62523;53.336;83.690;2023-03-23T01:20:22;99922.41;;;-10.22;100.00
74169;BME280;62523;53.336;83.690;2023-03-23T01:25:23;99906.53;;;-9.91;94.83
74169;BME280;62523;53.336;83.690;2023-03-23T01:30:25;99904.00;;;-10.62;96.75
74169;BME280;62523;53.336;83.690;2023-03-23T01:35:27;99894.75;;;-10.60;97.82
74169;BME280;62523;53.336;83.690;2023-03-23T01:40:28;99902.88;;;-10.46;96.59
74169;BME280;62523;53.336;83.690;2023-03-23T01:45:36;99911.91;;;-10.07;96.41
74169;BME280;62523;53.336;83.690;2023-03-23T01:55:53;99914.31;;;-9.37;92.51
74169;BME280;62523;53.336;83.690;2023-03-23T02:00:58;99910.19;;;-9.06;89.40
74169;BME280;62523;53.336;83.690;2023-03-23T02:06:02;99888.41;;;-8.95;86.38
74169;BME280;62523;53.336;83.690;2023-03-23T02:11:21;99886.47;;;-8.46;85.86
74169;BME280;62523;53.336;83.690;2023-03-23T02:16:55;99886.56;;;-8.11;82.44
74169;BME280;62523;53.336;83.690;2023-03-23T02:27:23;99879.16;;;-7.37;74.82
74169;BME280;62523;53.336;83.690;2023-03-23T02:32:45;99884.69;;;-7.55;72.61
74169;BME280;62523;53.336;83.690;2023-03-23T02:38:18;99872.38;;;-6.98;71.70
74169;BME280;62523;53.336;83.690;2023-03-23T02:43:24;99876.41;;;-7.08;69.58
74169;BME280;62523;53.336;83.690;2023-03-23T02:48:29;99854.91;;;-7.15;67.43
74169;BME280;62523;53.336;83.690;2023-03-23T02:53:33;99895.19;;;-6.71;70.01
74169;BME280;62523;53.336;83.690;2023-03-23T02:58:35;99882.06;;;-6.47;65.67
74169;BME280;62523;53.336;83.690;2023-03-23T03:03:37;99885.13;;;-6.23;65.49
74169;BME280;62523;53.336;83.690;2023-03-23T03:13:47;99883.59;;;-5.66;62.85
74169;BME280;62523;53.336;83.690;2023-03-23T03:19:03;99864.25;;;-4.94;60.55
74169;BME280;62523;53.336;83.690;2023-03-23T03:24:08;99873.81;;;-4.83;58.98
74169;BME280;62523;53.336;83.690;2023-03-23T03:29:11;99853.88;;;-5.00;59.74
74169;BME280;62523;53.336;83.690;2023-03-23T03:34:14;99853.06;;;-4.33;56.24
74169;BME280;62523;53.336;83.690;2023-03-23T03:39:19;99860.00;;;-3.48;53.11
74169;BME280;62523;53.336;83.690;2023-03-23T03:44:21;99855.91;;;-4.79;55.72
74169;BME280;62523;53.336;83.690;2023-03-23T03:49:22;99840.50;;;-4.07;53.65
74169;BME280;62523;53.336;83.690;2023-03-23T03:54:24;99828.69;;;-3.89;53.05
74169;BME280;62523;53.336;83.690;2023-03-23T03:59:25;99845.13;;;-3.78;53.77
74169;BME280;62523;53.336;83.690;2023-03-23T04:04:27;99829.88;;;-3.54;51.70
74169;BME280;62523;53.336;83.690;2023-03-23T04:09:29;99825.78;;;-3.27;53.52
74169;BME280;62523;53.336;83.690;2023-03-23T04:14:32;99805.16;;;-3.33;50.05
74169;BME280;62523;53.336;83.690;2023-03-23T04:19:33;99814.91;;;-2.88;47.80
74169;BME280;62523;53.336;83.690;2023-03-23T04:24:34;99813.19;;;-2.84;47.37
74169;BME280;62523;53.336;83.690;2023-03-23T04:29:36;99814.44;;;-1.93;45.74
74169;BME280;62523;53.336;83.690;2023-03-23T04:34:37;99803.13;;;-2.35;47.14
74169;BME280;62523;53.336;83.690;2023-03-23T04:39:38;99803.22;;;-2.02;44.73
74169;BME280;62523;53.336;83.690;2023-03-23T04:44:40;99787.75;;;-1.90;43.98
74169;BME280;62523;53.336;83.690;2023-03-23T04:49:43;99787.78;;;-1.35;41.75
74169;BME280;62523;53.336;83.690;2023-03-23T04:54:44;99767.13;;;-1.67;42.62
74169;BME280;62523;53.336;83.690;2023-03-23T04:59:45;99778.31;;;-1.37;42.05
74169;BME280;62523;53.336;83.690;2023-03-23T05:04:47;99782.63;;;-1.35;41.14
74169;BME280;62523;53.336;83.690;2023-03-23T05:09:49;99767.94;;;-1.13;41.63
74169;BME280;62523;53.336;83.690;2023-03-23T05:14:51;99767.84;;;-0.70;42.18
74169;BME280;62523;53.336;83.690;2023-03-23T05:19:52;99753.28;;;-1.11;44.67
74169;BME280;62523;53.336;83.690;2023-03-23T05:24:54;99767.88;;;-0.77;44.08
74169;BME280;62523;53.336;83.690;2023-03-23T05:29:55;99751.47;;;-0.75;42.11
74169;BME280;62523;53.336;83.690;2023-03-23T05:35:00;99751.44;;;-0.67;39.89
74169;BME280;62523;53.336;83.690;2023-03-23T05:40:01;99743.69;;;-0.64;38.47
74169;BME280;62523;53.336;83.690;2023-03-23T05:45:08;99737.56;;;-0.54;37.36
74169;BME280;62523;53.336;83.690;2023-03-23T05:50:12;99742.69;;;-0.42;36.11
74169;BME280;62523;53.336;83.690;2023-03-23T05:55:13;99722.00;;;-0.42;37.21
74169;BME280;62523;53.336;83.690;2023-03-23T06:00:15;99709.78;;;-0.16;37.64
74169;BME280;62523;53.336;83.690;2023-03-23T06:05:20;99713.19;;;-0.11;37.40
74169;BME280;62523;53.336;83.690;2023-03-23T06:10:22;99699.50;;;-0.32;36.34
74169;BME280;62523;53.336;83.690;2023-03-23T06:15:24;99692.69;;;-0.50;35.39
74169;BME280;62523;53.336;83.690;2023-03-23T06:20:25;99689.06;;;-0.15;35.63
74169;BME280;62523;53.336;83.690;2023-03-23T06:25:27;99686.34;;;-0.03;38.52
74169;BME280;62523;53.336;83.690;2023-03-23T06:30:28;99678.72;;;-0.21;35.76
74169;BME280;62523;53.336;83.690;2023-03-23T06:35:29;99677.47;;;0.29;35.53
74169;BME280;62523;53.336;83.690;2023-03-23T06:40:31;99671.66;;;-0.01;34.82
74169;BME280;62523;53.336;83.690;2023-03-23T06:45:32;99677.50;;;0.25;36.10
74169;BME280;62523;53.336;83.690;2023-03-23T06:50:33;99665.63;;;0.01;35.30
74169;BME280;62523;53.336;83.690;2023-03-23T06:55:34;99651.94;;;-0.18;34.92
74169;BME280;62523;53.336;83.690;2023-03-23T07:00:42;99667.16;;;0.25;36.91
74169;BME280;62523;53.336;83.690;2023-03-23T07:05:49;99667.81;;;0.45;35.54
74169;BME280;62523;53.336;83.690;2023-03-23T07:10:51;99663.09;;;0.84;37.90
74169;BME280;62523;53.336;83.690;2023-03-23T07:15:55;99644.78;;;0.98;37.92
74169;BME280;62523;53.336;83.690;2023-03-23T07:20:56;99654.63;;;0.67;34.83
74169;BME280;62523;53.336;83.690;2023-03-23T07:25:57;99646.66;;;0.85;37.09
74169;BME280;62523;53.336;83.690;2023-03-23T07:30:59;99651.16;;;1.39;36.11
74169;BME280;62523;53.336;83.690;2023-03-23T07:36:00;99641.34;;;0.94;37.10
74169;BME280;62523;53.336;83.690;2023-03-23T07:41:02;99631.50;;;0.48;37.63
74169;BME280;62523;53.336;83.690;2023-03-23T07:46:04;99616.31;;;0.90;36.53
74169;BME280;62523;53.336;83.690;2023-03-23T07:51:06;99626.53;;;1.04;38.12
74169;BME280;62523;53.336;83.690;2023-03-23T07:56:08;99618.63;;;1.15;37.36
74169;BME280;62523;53.336;83.690;2023-03-23T08:01:09;99606.78;;;0.94;38.01
74169;BME280;62523;53.336;83.690;2023-03-23T08:06:10;99614.41;;;1.08;38.23
74169;BME280;62523;53.336;83.690;2023-03-23T08:11:13;99617.28;;;0.83;39.26
74169;BME280;62523;53.336;83.690;2023-03-23T08:16:16;99600.81;;;0.86;37.92
74169;BME280;62523;53.336;83.690;2023-03-23T08:21:17;99599.44;;;0.58;41.18
74169;BME280;62523;53.336;83.690;2023-03-23T08:26:18;99592.44;;;0.62;39.76
74169;BME280;62523;53.336;83.690;2023-03-23T08:31:19;99568.31;;;0.57;41.28
74169;BME280;62523;53.336;83.690;2023-03-23T08:36:20;99587.00;;;0.84;39.60
74169;BME280;62523;53.336;83.690;2023-03-23T08:41:21;99559.81;;;0.46;39.92
74169;BME280;62523;53.336;83.690;2023-03-23T08:46:22;99575.84;;;0.78;38.80
74169;BME280;62523;53.336;83.690;2023-03-23T08:51:24;99578.50;;;0.75;40.50
74169;BME280;62523;53.336;83.690;2023-03-23T08:56:26;99569.28;;;0.48;39.86
74169;BME280;62523;53.336;83.690;2023-03-23T09:01:28;99558.94;;;0.47;39.94
74169;BME280;62523;53.336;83.690;2023-03-23T09:06:29;99566.34;;;0.77;39.26
74169;BME280;62523;53.336;83.690;2023-03-23T09:11:30;99546.19;;;0.28;39.97
74169;BME280;62523;53.336;83.690;2023-03-23T09:16:31;99546.41;;;0.84;39.32
74169;BME280;62523;53.336;83.690;2023-03-23T09:21:33;99543.50;;;0.37;38.87
74169;BME280;62523;53.336;83.690;2023-03-23T09:26:34;99546.03;;;0.44;39.50
74169;BME280;62523;53.336;83.690;2023-03-23T09:31:35;99536.56;;;0.38;40.83
74169;BME280;62523;53.336;83.690;2023-03-23T09:36:37;99536.44;;;0.50;40.76
74169;BME280;62523;53.336;83.690;2023-03-23T09:52:15;99522.50;;;0.60;43.66
74169;BME280;62523;53.336;83.690;2023-03-23T09:57:27;99521.66;;;0.57;44.96
74169;BME280;62523;53.336;83.690;2023-03-23T10:02:36;99530.06;;;0.76;43.03
74169;BME280;62523;53.336;83.690;2023-03-23T10:07:39;99522.81;;;0.33;42.71
74169;BME280;62523;53.336;83.690;2023-03-23T10:12:42;99520.34;;;0.22;42.28
74169;BME280;62523;53.336;83.690;2023-03-23T10:17:52;99506.63;;;0.15;42.49
74169;BME280;62523;53.336;83.690;2023-03-23T10:28:21;99504.03;;;0.14;43.94
74169;BME280;62523;53.336;83.690;2023-03-23T10:33:29;99508.66;;;0.60;43.08
74169;BME280;62523;53.336;83.690;2023-03-23T10:43:44;99502.75;;;0.50;44.66
74169;BME280;62523;53.336;83.690;2023-03-23T10:48:52;99498.47;;;0.46;44.57
74169;BME280;62523;53.336;83.690;2023-03-23T10:54:02;99496.16;;;0.23;45.11
74169;BME280;62523;53.336;83.690;2023-03-23T10:59:18;99480.88;;;0.00;45.53
74169;BME280;62523;53.336;83.690;2023-03-23T11:04:22;99478.97;;;0.13;46.28
74169;BME280;62523;53.336;83.690;2023-03-23T11:09:35;99476.63;;;-0.09;45.00
74169;BME280;62523;53.336;83.690;2023-03-23T11:14:37;99476.56;;;-0.01;47.46
74169;BME280;62523;53.336;83.690;2023-03-23T11:19:39;99469.91;;;-0.24;47.25
74169;BME280;62523;53.336;83.690;2023-03-23T11:24:45;99467.38;;;-0.31;48.34
74169;BME280;62523;53.336;83.690;2023-03-23T11:30:00;99474.41;;;-0.43;48.52
74169;BME280;62523;53.336;83.690;2023-03-23T11:35:05;99472.81;;;-0.60;49.63
74169;BME280;62523;53.336;83.690;2023-03-23T11:45:25;99467.03;;;-0.90;52.99
74169;BME280;62523;53.336;83.690;2023-03-23T11:50:31;99456.00;;;-1.15;55.06
74169;BME280;62523;53.336;83.690;2023-03-23T12:01:04;99463.09;;;-1.48;60.22
74169;BME280;62523;53.336;83.690;2023-03-23T12:06:19;99455.38;;;-1.63;62.86
74169;BME280;62523;53.336;83.690;2023-03-23T12:11:56;99456.31;;;-1.69;63.32
74169;BME280;62523;53.336;83.690;2023-03-23T12:17:18;99457.16;;;-1.75;64.41
74169;BME280;62523;53.336;83.690;2023-03-23T12:23:14;99455.50;;;-1.88;64.53
74169;BME280;62523;53.336;83.690;2023-03-23T12:33:45;99472.78;;;-1.98;66.11
74169;BME280;62523;53.336;83.690;2023-03-23T12:39:25;99453.00;;;-2.03;66.79
74169;BME280;62523;53.336;83.690;2023-03-23T12:44:38;99468.50;;;-2.13;67.17
74169;BME280;62523;53.336;83.690;2023-03-23T12:49:45;99437.56;;;-2.19;67.71
74169;BME280;62523;53.336;83.690;2023-03-23T12:54:59;99414.34;;;-2.23;68.30
74169;BME280;62523;53.336;83.690;2023-03-23T13:00:21;99437.50;;;-2.03;68.24
74169;BME280;62523;53.336;83.690;2023-03-23T13:10:32;99403.97;;;-2.14;69.40
74169;BME280;62523;53.336;83.690;2023-03-23T13:16:06;99405.72;;;-2.19;69.49
74169;BME280;62523;53.336;83.690;2023-03-23T13:26:18;99427.28;;;-2.47;72.03
74169;BME280;62523;53.336;83.690;2023-03-23T13:31:33;99410.91;;;-2.30;71.28
74169;BME280;62523;53.336;83.690;2023-03-23T13:36:41;99361.97;;;-2.55;72.27
74169;BME280;62523;53.336;83.690;2023-03-23T13:58:10;99412.56;;;-2.08;73.59
74169;BME280;62523;53.336;83.690;2023-03-23T14:03:26;99397.09;;;-2.11;72.98
74169;BME280;62523;53.336;83.690;2023-03-23T14:18:56;99434.94;;;-2.11;74.37
74169;BME280;62523;53.336;83.690;2023-03-23T14:24:14;99404.94;;;-2.44;74.67
74169;BME280;62523;53.336;83.690;2023-03-23T14:29:16;99438.41;;;-2.23;76.82
74169;BME280;62523;53.336;83.690;2023-03-23T14:34:26;99403.19;;;-2.36;76.67
74169;BME280;62523;53.336;83.690;2023-03-23T14:39:32;99419.50;;;-2.19;77.43
74169;BME280;62523;53.336;83.690;2023-03-23T14:44:39;99411.75;;;-2.27;77.50
74169;BME280;62523;53.336;83.690;2023-03-23T14:49:42;99409.19;;;-2.39;78.32
74169;BME280;62523;53.336;83.690;2023-03-23T14:54:45;99398.91;;;-2.40;78.52
74169;BME280;62523;53.336;83.690;2023-03-23T14:59:47;99391.19;;;-2.53;79.00
74169;BME280;62523;53.336;83.690;2023-03-23T15:04:56;99360.28;;;-2.66;79.85
74169;BME280;62523;53.336;83.690;2023-03-23T15:09:58;99368.00;;;-2.56;79.16
74169;BME280;62523;53.336;83.690;2023-03-23T15:15:02;99380.84;;;-2.47;80.14
74169;BME280;62523;53.336;83.690;2023-03-23T15:20:28;99344.81;;;-2.66;80.30
74169;BME280;62523;53.336;83.690;2023-03-23T15:25:31;99381.66;;;-2.37;79.42
74169;BME280;62523;53.336;83.690;2023-03-23T15:30:35;99355.13;;;-2.66;79.91
74169;BME280;62523;53.336;83.690;2023-03-23T15:35:47;99319.09;;;-3.10;80.84
74169;BME280;62523;53.336;83.690;2023-03-23T15:40:52;99301.91;;;-2.98;80.44
74169;BME280;62523;53.336;83.690;2023-03-23T15:46:03;99251.22;;;-3.09;80.47
74169;BME280;62523;53.336;83.690;2023-03-23T15:51:07;99294.13;;;-2.81;80.20
74169;BME280;62523;53.336;83.690;2023-03-23T15:56:13;99387.63;;;-2.09;78.89
74169;BME280;62523;53.336;83.690;2023-03-23T16:01:24;99365.31;;;-2.31;79.94
74169;BME280;62523;53.336;83.690;2023-03-23T16:06:27;99373.03;;;-2.25;80.17
74169;BME280;62523;53.336;83.690;2023-03-23T16:11:31;99366.16;;;-2.24;79.38
74169;BME280;62523;53.336;83.690;2023-03-23T16:16:45;99392.78;;;-2.10;79.90
74169;BME280;62523;53.336;83.690;2023-03-23T16:21:49;99387.63;;;-2.13;81.31
74169;BME280;62523;53.336;83.690;2023-03-23T16:26:52;99398.81;;;-2.16;80.74
74169;BME280;62523;53.336;83.690;2023-03-23T16:31:53;99337.03;;;-2.56;80.92
74169;BME280;62523;53.336;83.690;2023-03-23T16:36:54;99383.38;;;-2.25;81.54
74169;BME280;62523;53.336;83.690;2023-03-23T16:41:56;99396.25;;;-2.22;80.87
74169;BME280;62523;53.336;83.690;2023-03-23T16:46:57;99386.78;;;-2.26;81.98
74169;BME280;62523;53.336;83.690;2023-03-23T16:51:58;99357.59;;;-2.36;81.20
74169;BME280;62523;53.336;83.690;2023-03-23T16:56:59;99373.91;;;-2.21;81.41
74169;BME280;62523;53.336;83.690;2023-03-23T17:02:01;99379.91;;;-2.22;80.95
74169;BME280;62523;53.336;83.690;2023-03-23T17:07:03;99332.63;;;-2.31;80.67
74169;BME280;62523;53.336;83.690;2023-03-23T17:12:05;99353.22;;;-2.20;80.15
74169;BME280;62523;53.336;83.690;2023-03-23T17:17:06;99367.78;;;-2.07;78.38
74169;BME280;62523;53.336;83.690;2023-03-23T17:22:08;99358.31;;;-2.00;77.90
74169;BME280;62523;53.336;83.690;2023-03-23T17:27:09;99360.03;;;-1.97;78.23
74169;BME280;62523;53.336;83.690;2023-03-23T17:32:11;99350.59;;;-2.00;78.50
74169;BME280;62523;53.336;83.690;2023-03-23T17:37:12;99306.78;;;-2.17;77.33
74169;BME280;62523;53.336;83.690;2023-03-23T17:42:13;99335.84;;;-1.86;76.98
74169;BME280;62523;53.336;83.690;2023-03-23T17:47:15;99336.72;;;-1.87;77.21
74169;BME280;62523;53.336;83.690;2023-03-23T17:52:16;99323.75;;;-1.76;76.25
74169;BME280;62523;53.336;83.690;2023-03-23T17:57:17;99303.09;;;-1.79;76.08
74169;BME280;62523;53.336;83.690;2023-03-23T18:02:18;99325.31;;;-1.53;75.51
74169;BME280;62523;53.336;83.690;2023-03-23T18:07:19;99322.75;;;-1.58;75.91
74169;BME280;62523;53.336;83.690;2023-03-23T18:12:23;99322.72;;;-1.50;75.46
74169;BME280;62523;53.336;83.690;2023-03-23T18:17:24;99326.16;;;-1.50;75.31
74169;BME280;62523;53.336;83.690;2023-03-23T18:22:26;99320.19;;;-1.55;76.08
74169;BME280;62523;53.336;83.690;2023-03-23T18:27:27;99317.56;;;-1.53;75.66
74169;BME280;62523;53.336;83.690;2023-03-23T18:32:28;99322.69;;;-1.44;75.04
74169;BME280;62523;53.336;83.690;2023-03-23T18:37:29;99320.94;;;-1.45;75.03
74169;BME280;62523;53.336;83.690;2023-03-23T18:42:31;99323.44;;;-1.33;73.70
74169;BME280;62523;53.336;83.690;2023-03-23T18:47:32;99317.38;;;-1.32;73.29
74169;BME280;62523;53.336;83.690;2023-03-23T18:52:34;99304.50;;;-1.38;72.69
74169;BME280;62523;53.336;83.690;2023-03-23T18:57:38;99303.63;;;-1.31;73.00
74169;BME280;62523;53.336;83.690;2023-03-23T19:02:39;99331.09;;;-1.22;72.52
74169;BME280;62523;53.336;83.690;2023-03-23T19:07:41;99330.22;;;-1.19;72.55
74169;BME280;62523;53.336;83.690;2023-03-23T19:12:43;99324.28;;;-1.32;73.00
74169;BME280;62523;53.336;83.690;2023-03-23T19:17:49;99332.00;;;-1.29;72.82
74169;BME280;62523;53.336;83.690;2023-03-23T19:22:56;99330.31;;;-1.32;73.09
74169;BME280;62523;53.336;83.690;2023-03-23T19:27:58;99326.97;;;-1.41;73.74
74169;BME280;62523;53.336;83.690;2023-03-23T19:32:59;99350.91;;;-1.18;72.74
74169;BME280;62523;53.336;83.690;2023-03-23T19:38:00;99355.94;;;-1.01;71.33
74169;BME280;62523;53.336;83.690;2023-03-23T19:43:08;99343.91;;;-1.05;71.10
74169;BME280;62523;53.336;83.690;2023-03-23T19:48:10;99337.09;;;-1.17;71.38
74169;BME280;62523;53.336;83.690;2023-03-23T19:53:13;99355.88;;;-0.99;70.96
74169;BME280;62523;53.336;83.690;2023-03-23T19:58:15;99361.09;;;-1.02;70.74
74169;BME280;62523;53.336;83.690;2023-03-23T20:03:16;99364.59;;;-1.07;71.05
74169;BME280;62523;53.336;83.690;2023-03-23T20:08:20;99363.69;;;-1.01;71.16
74169;BME280;62523;53.336;83.690;2023-03-23T20:13:21;99351.69;;;-1.13;71.20
74169;BME280;62523;53.336;83.690;2023-03-23T20:18:22;99378.34;;;-1.05;71.14
74169;BME280;62523;53.336;83.690;2023-03-23T20:23:23;99374.91;;;-1.05;71.29
74169;BME280;62523;53.336;83.690;2023-03-23T20:28:25;99376.63;;;-1.04;71.49
74169;BME280;62523;53.336;83.690;2023-03-23T20:33:26;99373.19;;;-1.03;71.00
74169;BME280;62523;53.336;83.690;2023-03-23T20:38:30;99366.38;;;-1.12;71.34
74169;BME280;62523;53.336;83.690;2023-03-23T20:43:36;99378.34;;;-1.06;70.63
74169;BME280;62523;53.336;83.690;2023-03-23T20:48:38;99379.22;;;-1.04;70.79
74169;BME280;62523;53.336;83.690;2023-03-23T20:53:40;99362.84;;;-1.08;70.25
74169;BME280;62523;53.336;83.690;2023-03-23T20:58:41;99380.94;;;-1.03;70.35
74169;BME280;62523;53.336;83.690;2023-03-23T21:03:42;99362.94;;;-1.17;70.52
74169;BME280;62523;53.336;83.690;2023-03-23T21:08:44;99384.53;;;-1.22;71.55
74169;BME280;62523;53.336;83.690;2023-03-23T21:13:46;99391.41;;;-1.20;72.35
74169;BME280;62523;53.336;83.690;2023-03-23T21:18:47;99375.13;;;-1.33;72.69
74169;BME280;62523;53.336;83.690;2023-03-23T21:23:49;99372.59;;;-1.40;72.81
74169;BME280;62523;53.336;83.690;2023-03-23T21:28:52;99419.06;;;-1.34;73.79
74169;BME280;62523;53.336;83.690;2023-03-23T21:33:53;99422.56;;;-1.43;75.85
74169;BME280;62523;53.336;83.690;2023-03-23T21:38:55;99423.50;;;-1.58;77.86
74169;BME280;62523;53.336;83.690;2023-03-23T21:43:56;99422.66;;;-1.58;78.66
74169;BME280;62523;53.336;83.690;2023-03-23T21:48:58;99404.63;;;-1.69;78.99
74169;BME280;62523;53.336;83.690;2023-03-23T21:53:59;99438.16;;;-1.60;79.96
74169;BME280;62523;53.336;83.690;2023-03-23T21:59:00;99441.66;;;-1.66;80.55
74169;BME280;62523;53.336;83.690;2023-03-23T22:04:03;99449.41;;;-1.70;81.04
74169;BME280;62523;53.336;83.690;2023-03-23T22:09:05;99460.63;;;-1.70;82.17
74169;BME280;62523;53.336;83.690;2023-03-23T22:14:06;99465.75;;;-1.68;83.62
74169;BME280;62523;53.336;83.690;2023-03-23T22:19:07;99446.91;;;-1.89;85.70
74169;BME280;62523;53.336;83.690;2023-03-23T22:24:09;99458.06;;;-1.82;87.79
74169;BME280;62523;53.336;83.690;2023-03-23T22:29:10;99465.88;;;-1.91;90.98
74169;BME280;62523;53.336;83.690;2023-03-23T22:34:11;99428.94;;;-2.09;92.24
74169;BME280;62523;53.336;83.690;2023-03-23T22:39:13;99490.78;;;-1.76;92.29
74169;BME280;62523;53.336;83.690;2023-03-23T22:44:15;99447.78;;;-1.93;91.24
74169;BME280;62523;53.336;83.690;2023-03-23T22:49:20;99484.72;;;-1.69;90.63
74169;BME280;62523;53.336;83.690;2023-03-23T22:54:21;99456.34;;;-1.83;89.49
74169;BME280;62523;53.336;83.690;2023-03-23T22:59:22;99500.13;;;-1.55;87.37
74169;BME280;62523;53.336;83.690;2023-03-23T23:04:23;99452.88;;;-1.79;86.44
74169;BME280;62523;53.336;83.690;2023-03-23T23:09:25;99508.75;;;-1.53;86.40
74169;BME280;62523;53.336;83.690;2023-03-23T23:14:27;99507.06;;;-1.59;86.21
74169;BME280;62523;53.336;83.690;2023-03-23T23:19:28;99489.03;;;-1.79;86.68
74169;BME280;62523;53.336;83.690;2023-03-23T23:24:29;99514.00;;;-1.73;87.66
74169;BME280;62523;53.336;83.690;2023-03-23T23:29:31;99535.50;;;-1.65;87.96
74169;BME280;62523;53.336;83.690;2023-03-23T23:34:35;99526.00;;;-1.65;88.73
74169;BME280;62523;53.336;83.690;2023-03-23T23:39:36;99553.63;;;-1.85;90.63
74169;BME280;62523;53.336;83.690;2023-03-23T23:44:40;99551.94;;;-1.95;91.98
74169;BME280;62523;53.336;83.690;2023-03-23T23:49:43;99560.53;;;-2.07;94.17
74169;BME280;62523;53.336;83.690;2023-03-23T23:54:47;99551.97;;;-2.17;94.86
74169;BME280;62523;53.336;83.690;2023-03-23T23:59:54;99570.91;;;-2.27;95.88
